ADDS TAF Board (Experimental) INFO Settings

IDs: Format: Expanded Condensed

KSLC - Salt Lake City Intl, UT, US

Issued at 0539 UTC 30 Mar 2015
Updated at: 0556 UTC 30 Mar 2015
Time0553Z 30/06Z 30/07Z 30/08Z 30/09Z 30/10Z 30/11Z 30/12Z 30/13Z 30/14Z 30/15Z 30/16Z 30/17Z 30/18Z
Type OBS PRVL PRVL PRVL PRVL PRVL PRVL PRVL PRVL PRVL PRVL PRVL PRVL PRVL
VIS 10 >6 >6 >6 >6 >6 >6 >6 >6 >6 >6 >6 >6 >6
CIG -- -- -- -- -- -- -- -- -- -- -- -- -- --
Cover CLR SKC SKC SKC SKC SKC SKC SKC SKC SKC SKC SKC SKC SKC
FltCat VFR VFR VFR VFR VFR VFR VFR VFR VFR VFR VFR VFR VFR VFR
WX -- -- -- -- -- -- -- -- -- -- -- -- -- --
WDir 120 150 150 150 150 150 150 150 150 150 150 150 150 150
WSpd 5 6 6 6 6 6 6 6 6 6 6 6 6 6
WGst -- -- -- -- -- -- -- -- -- -- -- -- -- --
R14/32
XWnd 3 0 0 0 0 0 0 0 0 0 0 0 0 0
HWnd 4 6 6 6 6 6 6 6 6 6 6 6 6 6
R16/34
XWnd 4 3 3 3 3 3 3 3 3 3 3 3 3 3
HWnd 3 5 5 5 5 5 5 5 5 5 5 5 5 5
R17/35
XWnd 4 3 3 3 3 3 3 3 3 3 3 3 3 3
HWnd 3 5 5 5 5 5 5 5 5 5 5 5 5 5
RHB/18
XWnd -4 -3 -3 -3 -3 -3 -3 -3 -3 -3 -3 -3 -3 -3
HWnd -2 -5 -5 -5 -5 -5 -5 -5 -5 -5 -5 -5 -5 -5

NOTE: TEMPO conditions in [brackets]. Keep in mind TEMPO conditions might be better (lower impact) than prevailing conditions.

Raw TAF
KSLC 300539Z 3006/3112 15006KT P6SM SKC
  FM301900 32008KT P6SM SCT200
  FM310300 15008KT P6SM BKN200


Raw METAR
KSLC 300553Z 12005KT 10SM CLR 09/M04 A3019 RMK AO2 SLP200 T00941044 10183 20094 55004 $
KSLC 300453Z 17007KT 10SM CLR 11/M04 A3018 RMK AO2 SLP201 T01061039 $
KSLC 300353Z 15004KT 10SM CLR 11/M01 A3019 RMK AO2 SLP206 T01111011 $
KSLC 300253Z 26004KT 10SM CLR 12/M02 A3020 RMK AO2 SLP209 T01221022 53001 $

METAR Board
Radar Display
Forecast Discussion

TAF Board Legend

Potential Impact
Threat None Slight Moderate High
Visibility (sm) ≥5.1 5.1>X≥3 3>X≥1 <1
Ceiling (100 ft) ≥30.1 30.1>X≥10 10>X≥5 <5
Wind Speed (kt) <10 10≤X<20 20≤X<30 ≥30
Wind Gust (kt) <15 15≤X<25 25≤X<35 ≥35
Weather No Wx Reported VCTS,-TS,-FZRA,SN TS,FZRA +TS,+FZRA,+SN